Bridgeport Valley, California Weather observations

Data are for 10 minute period ending at time listed.
 Day   Time   Solar   Ave.   Ave.  Ave.  Vector  Max.   Baro.   Total    
  of    of     Rad.   Air    Rel.  Wind   Wind   Wind  Press.  Precip.   
Year   Day            Temp.  Hum.  Speed  Dir.   Gust                    
2017   (PST)  Kw/m2    F      %     mph   deg.    mph    mb.     in.     
-------------------------------------------------------------------------
  22   15:30   0.11   32.0    96    3.8    35     6.2   786.6    0.01 
  22   15:40   0.08   31.8    95    3.4   307     5.3   786.8    0.00 
  22   15:50   0.07   31.1    95    6.6   125    12.5   786.8    0.00 
  22   16:00   0.08   31.0    95   10.1    93    17.6   786.4    0.00 
  22   16:10   0.07   30.9    94    5.7    99     8.0   786.2    0.01 
  22   16:20   0.05   30.8    93    4.7   122    11.1   786.0    0.00 
  22   16:30   0.05   31.1    88    8.8   254    13.2   785.9    0.00 
  22   16:40   0.04   30.9    89    4.4   203     8.2   785.8    0.01 
  22   16:50   0.02   30.8    89    7.6   116    14.8   785.4    0.00 
  22   17:00   0.01   30.9    88    6.7   323    11.2   785.3    0.00 
  22   17:10   0.01   30.1    91    6.9   354     9.9   785.2    0.00 
  22   17:20   0.00   29.7    92    4.3    27     6.8   785.1    0.00 
  22   17:30   0.00   29.3    92    6.6     1     8.6   785.0    0.00 
  22   17:40   0.00   29.0    93    7.9     3    10.2   785.0    0.00 
  22   17:50   0.00   28.7    93    8.9    12    11.2   784.9    0.00 
  22   18:00   0.00   28.5    94    7.8    36    11.4   784.8    0.00 
  22   18:10   0.00   28.7    94    5.9    22     7.5   785.2    0.00 
  22   18:20   0.00   28.8    94    6.0    29     8.2   785.3    0.00 
  22   18:30   0.00   29.1    94    5.1    48     7.4   785.5    0.00 
  22   18:40   0.00   29.2    94    4.9    69     7.5   785.4    0.00 
  22   18:50   0.00   29.4    94    5.8    86     9.6   785.2    0.00 
  22   19:00   0.00   29.7    94    4.5    94     6.1   785.2    0.00 
  22   19:10   0.00   29.8    95    5.4   117    11.0   785.1    0.00 
  22   19:20   0.00   29.4    95    8.8   143    12.6   785.0    0.00 
  22   19:30   0.00   29.3    95    7.7   144    10.4   785.1    0.00 
  22   19:40   0.00   29.0    94    8.6   154    12.1   785.0    0.00 
  22   19:50   0.00   28.8    93    9.6   170    13.3   785.0    0.00 
  22   20:00   0.00   28.9    92   10.3   182    13.4   785.1    0.00 
  22   20:10   0.00   28.8    92    8.3   190    12.7   785.1    0.00 
  22   20:20   0.00   28.6    92    9.9   179    13.8   785.0    0.00 
  22   20:30   0.00   28.4    92   10.4   170    14.1   785.2    0.00 
  22   20:40   0.00   28.4    91    9.5   178    14.7   785.3    0.00 
  22   20:50   0.00   28.2    92    8.0   194    13.2   785.4    0.00 
  22   21:00   0.00   28.0    94    3.6   326     7.3   785.5    0.00 
  22   21:10   0.00   28.0    94    6.3    32     9.1   785.7    0.00 
  22   21:20   0.00   28.0    94    8.4    28    11.0   785.7    0.00 
  22   21:30   0.00   27.9    95    9.5    33    11.5   785.5    0.00 
  22   21:40   0.00   27.8    95    9.4    42    11.5   785.4    0.00 
  22   21:50   0.00   27.7    95    8.9    44    11.6   785.2    0.00 
  22   22:00   0.00   27.5    95    7.7    34     9.7   785.3    0.00 
  22   22:10   0.00   27.4    95    8.7    31    10.7   785.4    0.00 
  22   22:20   0.00   27.1    95    6.0    18     9.0   785.7    0.00 
  22   22:30   0.00   26.9    95    5.7   289    14.0   785.6    0.00 
  22   22:40   0.00   26.8    95   12.1   242    19.0   785.7    0.00 
  22   22:50   0.00   26.4    93   15.3   240    18.4   785.9    0.00 
  22   23:00   0.00   26.2    92   12.4   250    16.3   786.0    0.00 
  22   23:10   0.00   25.9    91   11.7   261    16.1   786.0    0.00 
  22   23:20   0.00   25.3    92   10.6   268    13.6   785.9    0.00 
  22   23:30   0.00   24.9    94    7.8   280     9.6   785.9    0.00 
  22   23:40   0.00   24.8    94    6.7   286     8.9   785.9    0.00 
  22   23:50   0.00   24.7    94    4.4   280     7.7   785.9    0.00 
  23    0:00   0.00   24.7    94    1.9   292     2.8   785.9    0.00 
  23    0:10   0.00   24.7    94    1.2   321     2.2   785.8    0.00 
  23    0:20   0.00   24.7    94    0.3   318     0.9   785.8    0.00 
  23    0:30   0.00   24.7    94    1.3   101     3.5   785.9    0.00 
  23    0:40   0.00   24.6    94    4.1    89     5.7   785.8    0.00 
  23    0:50   0.00   24.6    95    3.7    83     4.9   785.8    0.00 
  23    1:00   0.00   24.7    95    3.9    66     5.7   785.7    0.00 
  23    1:10   0.00   24.7    95    4.5    72     5.7   785.7    0.00 
  23    1:20   0.00   24.6    95    4.2    63     5.3   785.7    0.00 
  23    1:30   0.00   24.6    94    2.4    74     4.4   785.8    0.00 
  23    1:40   0.00   24.5    94    1.2    97     2.9   786.0    0.00 
  23    1:50   0.00   24.5    94    0.5    53     1.6   786.0    0.00 
  23    2:00   0.00   24.5    94    1.8   333     6.1   786.0    0.00 
  23    2:10   0.00   24.4    94    4.0   349     7.2   786.0    0.00 
  23    2:20   0.00   24.4    94    4.3   353     5.3   786.1    0.00 
  23    2:30   0.00   24.2    94    4.1   349     5.0   786.1    0.00 
  23    2:40   0.00   24.0    94    3.8   339     6.0   786.2    0.00 
  23    2:50   0.00   23.9    94    5.3   353     7.1   786.2    0.00 
  23    3:00   0.00   23.6    94    5.5     1     7.0   786.2    0.00 
  23    3:10   0.00   23.4    94    4.5     2     5.9   786.2    0.00 
  23    3:20   0.00   23.3    94    3.5    17     4.7   786.2    0.00 
  23    3:30   0.00   23.2    94    3.2   359     4.3   786.3    0.00 
  23    3:40   0.00   23.1    94    2.5   360     3.3   786.4    0.00 
  23    3:50   0.00   23.0    94    3.0    44     4.5   786.4    0.00 
  23    4:00   0.00   23.0    94    3.6    32     4.7   786.4    0.00 
  23    4:10   0.00   23.0    94    3.7    37     4.2   786.4    0.00 
  23    4:20   0.00   22.8    94    4.4    28     5.4   786.5    0.00 
  23    4:30   0.00   22.7    94    2.8    33     3.2   786.6    0.00 
  23    4:40   0.00   22.5    94    2.2    31     3.1   786.7    0.00 
  23    4:50   0.00   22.5    94    2.4    16     2.9   786.8    0.00 
  23    5:00   0.00   22.5    94    2.7    15     3.4   786.9    0.00 
  23    5:10   0.00   22.6    94    2.3    42     3.1   786.9    0.00 
  23    5:20   0.00   22.7    94    2.2    88     3.9   786.9    0.00 
  23    5:30   0.00   22.6    94    1.2    46     3.2   786.9    0.00 
  23    5:40   0.00   22.3    93    0.6     2     2.3   787.1    0.00 
  23    5:50   0.00   20.9    92    0.6   148     2.3   787.0    0.00 
  23    6:00   0.00   20.4    93    2.4    99     3.9   787.2    0.00 
  23    6:10   0.00   19.8    93    1.6    99     2.9   787.3    0.00 
  23    6:20   0.00   19.9    93    3.7    46     6.9   787.3    0.00 
  23    6:30   0.00   19.9    93    5.2     5     7.4   787.5    0.00 
  23    6:40   0.00   18.8    92    4.6    66     8.0   787.5    0.00 
  23    6:50   0.00   19.8    93    3.3   355     6.1   787.8    0.00 
  23    7:00   0.00   20.4    93    3.5    24     4.7   787.9    0.00 
  23    7:10   0.00   19.6    92    3.7   340     4.7   788.1    0.00 
  23    7:20   0.01   19.2    92    3.6   344     5.2   788.3    0.00 
  23    7:30   0.01   19.4    93    4.0   344     6.1   788.4    0.00 
  23    7:40   0.02   20.2    93    4.2    12     5.3   788.4    0.00 
  23    7:50   0.04   20.2    92    6.0    89     7.9   788.4    0.00 
  23    8:00   0.05   19.2    92    5.3   117     7.3   788.6    0.00 
  23    8:10   0.06   19.0    92    4.2   144     5.6   788.7    0.00 
  23    8:20   0.09   18.0    91    5.3   155     6.4   788.8    0.00 
  23    8:30   0.11   17.7    91    4.6   135     5.9   788.9    0.00 
  23    8:40   0.15   18.3    92    2.6   104     4.5   789.0    0.00 
  23    8:50   0.20   20.2    92    2.2   111     3.0   789.0    0.00 
  23    9:00   0.17   21.4    92    1.8    67     2.4   789.1    0.00 
  23    9:10   0.21   19.6    90    2.7   304     5.3   789.2    0.00 
  23    9:20   0.26   17.4    90    5.2   280     8.3   789.2    0.00 
  23    9:30   0.25   18.8    92    3.0   264     7.5   789.3    0.00 
  23    9:40   0.38   18.8    90    3.6   217     8.0   789.4    0.00 
  23    9:50   0.50   20.2    89    3.4   211     7.2   789.5    0.00 
  23   10:00   0.49   21.6    87    2.8   197     4.6   789.6    0.00 
  23   10:10   0.46   23.2    87    2.7   202     5.0   789.6    0.00 
  23   10:20   0.52   27.9    91    0.8    72     2.6   789.5    0.00 
  23   10:30   0.47   31.7    88    0.2    18     1.5   789.4    0.00 
  23   10:40   0.49   28.9    87    1.1   321     4.7   789.3    0.00 
  23   10:50   0.57   30.8    85    5.2   352     6.4   789.2    0.01 
  23   11:00   0.60   30.8    86    3.4   350     4.5   789.2    0.00 
  23   11:10   0.66   32.2    86    3.2   335     3.8   789.1    0.00 
  23   11:20   0.54   31.6    88    3.5     7     6.3   789.1    0.00 
  23   11:30   0.49   31.1    87    3.3     8     4.8   789.0    0.01 
  23   11:40   0.54   31.7    86    4.0    18     6.1   788.9    0.00 
  23   11:50   0.68   30.5    85    4.7    43     5.9   788.9    0.00 
  23   12:00   0.63   29.9    84    4.3    72     6.2   788.7    0.00 
  23   12:10   0.70   31.1    84    4.1     8     6.8   788.7    0.00 
  23   12:20   0.79   34.3    84    2.2     9     3.8   788.6    0.00 
  23   12:30   0.83   37.0    80    1.0    56     2.0   788.6    0.00 
  23   12:40   0.85   34.3    74    2.7   273     5.9   788.5    0.00 
  23   12:50   0.65   29.4    71    3.8   209     8.0   788.6    0.00 
  23   13:00   0.42   27.3    74    1.0   176     2.6   788.7    0.00 
  23   13:10   0.38   26.4    74    4.1   199     8.6   788.8    0.00 
  23   13:20   0.55   26.7    72    3.9   100     8.8   788.6    0.00 
  23   13:30   0.85   31.3    70    3.7    65     5.8   788.6    0.00 
  23   13:40   0.58   34.1    72    4.3    30     7.6   788.5    0.00 
  23   13:50   0.30   32.0    77    4.3     5     5.8   788.6    0.00 
  23   14:00   0.36   29.0    72    3.7   337     6.0   788.6    0.00 
  23   14:10   0.45   25.9    69    3.0   267     5.4   788.6    0.00 
  23   14:20   0.45   25.6    68    1.7   249     3.1   788.8    0.00 
  23   14:30   0.41   28.8    74    1.1    14     2.5   788.9    0.00 
  23   14:40   0.46   35.7    72    2.3    17     2.9   788.9    0.00 
  23   14:50   0.42   38.6    64    3.2    37     5.4   788.9    0.00 
  23   15:00   0.39   36.8    68    3.4    59     5.1   789.0    0.00 
  23   15:10   0.35   33.7    73    2.8    48     4.2   789.1    0.00 
  23   15:20   0.33   30.0    64    1.6    93     2.9   789.0    0.00 

Return to Bridgeport Valley graphs page.


Western Regional Climate Center,wrcc@dri.edu